createdAt,value
2018-02-12T00:00:56.927Z,1.60
2018-02-12T00:03:25.250Z,1.60
2018-02-12T00:05:54.324Z,1.70
2018-02-12T00:08:22.653Z,1.70
2018-02-12T00:10:50.956Z,1.70
2018-02-12T00:13:19.271Z,1.80
2018-02-12T00:15:48.349Z,1.80
2018-02-12T00:18:16.673Z,1.80
2018-02-12T00:20:44.968Z,1.80
2018-02-12T00:23:13.292Z,1.80
2018-02-12T00:25:42.364Z,1.80
2018-02-12T00:28:10.674Z,1.80
2018-02-12T00:30:39.738Z,1.80
2018-02-12T00:33:08.062Z,1.80
2018-02-12T00:35:37.123Z,1.80
2018-02-12T00:38:05.441Z,1.80
2018-02-12T00:40:33.739Z,1.80
2018-02-12T00:43:02.074Z,1.80
2018-02-12T00:45:30.366Z,1.80
2018-02-12T00:47:58.684Z,1.80
2018-02-12T00:50:26.984Z,1.80
2018-02-12T00:52:55.298Z,1.80
2018-02-12T00:55:24.392Z,1.80
2018-02-12T00:57:53.455Z,1.80
2018-02-12T01:00:21.767Z,1.70
2018-02-12T01:02:50.833Z,1.80
2018-02-12T01:05:19.171Z,1.70
2018-02-12T01:07:47.475Z,1.80
2018-02-12T01:10:15.809Z,1.70
2018-02-12T01:12:44.100Z,1.80
2018-02-12T01:15:12.420Z,1.80
2018-02-12T01:17:40.757Z,1.80
2018-02-12T01:20:09.071Z,1.80
2018-02-12T01:22:37.519Z,1.80
2018-02-12T01:25:05.839Z,1.70
2018-02-12T01:27:34.141Z,1.70
2018-02-12T01:30:03.225Z,1.70
2018-02-12T01:32:31.531Z,1.70
2018-02-12T01:34:59.867Z,1.70
2018-02-12T01:37:28.180Z,1.80
2018-02-12T01:39:57.262Z,1.80
2018-02-12T01:42:25.556Z,1.70
2018-02-12T01:44:53.875Z,1.80
2018-02-12T01:47:22.172Z,1.70
2018-02-12T01:50:02.361Z,1.80
2018-02-12T01:52:30.664Z,1.80
2018-02-12T01:54:58.980Z,1.70
2018-02-12T01:57:27.303Z,1.70
2018-02-12T01:59:55.659Z,1.70
2018-02-12T02:02:23.955Z,1.70
2018-02-12T02:04:53.017Z,1.70
2018-02-12T02:07:21.335Z,1.70
2018-02-12T02:09:49.638Z,1.60
2018-02-12T02:12:17.971Z,1.70
2018-02-12T02:14:46.262Z,1.70
2018-02-12T02:17:14.605Z,1.80
2018-02-12T02:19:42.905Z,1.80
2018-02-12T02:22:11.219Z,1.70
2018-02-12T02:24:39.536Z,1.70
2018-02-12T02:27:07.861Z,1.70
2018-02-12T02:29:36.920Z,1.60
2018-02-12T02:32:05.243Z,1.60
2018-02-12T02:34:33.552Z,1.60
2018-02-12T02:37:01.887Z,1.60
2018-02-12T02:39:30.196Z,1.50
2018-02-12T02:41:58.528Z,1.40
2018-02-12T02:44:26.838Z,1.40
2018-02-12T02:46:55.174Z,1.40
2018-02-12T02:49:23.466Z,1.30
2018-02-12T02:51:52.541Z,1.10
2018-02-12T02:54:20.843Z,1.10
2018-02-12T02:56:49.930Z,1.10
2018-02-12T02:59:19.009Z,1.10
2018-02-12T03:01:47.296Z,1.00
2018-02-12T03:04:15.628Z,1.10
2018-02-12T03:06:43.924Z,1.00
2018-02-12T03:09:12.290Z,1.10
2018-02-12T03:11:41.365Z,1.00
2018-02-12T03:14:09.688Z,1.00
2018-02-12T03:16:38.016Z,0.90
2018-02-12T03:19:07.095Z,0.60
2018-02-12T03:21:36.161Z,0.70
2018-02-12T03:24:04.477Z,0.70
2018-02-12T03:26:32.800Z,0.80
2018-02-12T03:29:01.112Z,0.80
2018-02-12T03:31:29.420Z,0.90
2018-02-12T03:33:57.792Z,0.90
2018-02-12T03:36:26.976Z,0.90
2018-02-12T03:38:56.260Z,0.90
2018-02-12T03:41:24.559Z,0.90
2018-02-12T03:43:53.680Z,1.00
2018-02-12T03:46:21.988Z,1.00
2018-02-12T03:48:50.292Z,1.00
2018-02-12T03:51:18.618Z,1.00
2018-02-12T03:53:46.920Z,1.10
2018-02-12T03:56:16.005Z,1.10
2018-02-12T03:58:44.511Z,1.10
2018-02-12T04:01:12.828Z,1.20
2018-02-12T04:03:41.987Z,1.20
2018-02-12T04:06:10.303Z,1.20
2018-02-12T04:08:39.364Z,1.30
2018-02-12T04:11:07.679Z,1.30
2018-02-12T04:13:36.745Z,1.30
2018-02-12T04:16:05.060Z,1.30
2018-02-12T04:18:33.379Z,1.30
2018-02-12T04:21:01.710Z,1.20
2018-02-12T04:23:30.037Z,1.20
2018-02-12T04:25:58.362Z,1.20
2018-02-12T04:28:26.656Z,1.20
2018-02-12T04:30:55.821Z,1.20
2018-02-12T04:33:24.128Z,1.20
2018-02-12T04:35:53.219Z,1.20
2018-02-12T04:38:22.284Z,1.20
2018-02-12T04:40:50.608Z,1.20
2018-02-12T04:43:18.913Z,1.20
2018-02-12T04:45:47.236Z,1.20
2018-02-12T04:48:15.536Z,1.20
2018-02-12T04:50:44.632Z,1.30
2018-02-12T04:53:13.702Z,1.20
2018-02-12T04:55:42.028Z,1.20
2018-02-12T04:58:10.324Z,1.20
2018-02-12T05:00:38.643Z,1.20
2018-02-12T05:03:06.964Z,1.20
2018-02-12T05:05:35.287Z,1.20
2018-02-12T05:08:03.585Z,1.30
2018-02-12T05:10:32.667Z,1.20
2018-02-12T05:13:02.966Z,1.20
2018-02-12T05:15:31.284Z,1.30
2018-02-12T05:18:00.347Z,1.20
2018-02-12T05:20:28.665Z,1.20
2018-02-12T05:22:58.383Z,1.10
2018-02-12T05:25:27.459Z,1.10
2018-02-12T05:27:56.520Z,1.10
2018-02-12T05:30:24.836Z,1.10
2018-02-12T05:32:54.001Z,1.00
2018-02-12T05:35:22.313Z,1.10
2018-02-12T05:37:51.414Z,1.00
2018-02-12T05:40:21.229Z,1.00
2018-02-12T05:42:50.292Z,1.00
2018-02-12T05:45:18.620Z,1.00
2018-02-12T05:47:46.921Z,1.00
2018-02-12T05:50:15.237Z,1.00
2018-02-12T05:52:43.541Z,1.00
2018-02-12T05:55:12.624Z,1.00
2018-02-12T05:57:40.920Z,0.90
2018-02-12T06:00:10.006Z,0.90
2018-02-12T06:02:39.077Z,0.90
2018-02-12T06:05:07.393Z,0.90
2018-02-12T06:07:35.689Z,0.90
2018-02-12T06:10:04.005Z,0.90
2018-02-12T06:12:32.317Z,0.90
2018-02-12T06:15:01.385Z,1.00
2018-02-12T06:17:29.700Z,1.00
2018-02-12T06:19:58.005Z,1.00
2018-02-12T06:22:26.317Z,1.00
2018-02-12T06:24:54.620Z,1.00
2018-02-12T06:27:23.705Z,1.00
2018-02-12T06:29:52.002Z,1.00
2018-02-12T06:32:21.080Z,1.00
2018-02-12T06:34:49.412Z,1.00
2018-02-12T06:37:17.762Z,1.00
2018-02-12T06:39:46.817Z,1.00
2018-02-12T06:42:15.132Z,0.90
2018-02-12T06:44:43.433Z,0.90
2018-02-12T06:47:11.752Z,0.90
2018-02-12T06:49:40.052Z,0.90
2018-02-12T06:52:09.146Z,0.90
2018-02-12T06:54:37.440Z,0.90
2018-02-12T06:57:05.760Z,0.90
2018-02-12T06:59:34.059Z,0.90
2018-02-12T07:02:02.372Z,0.90
2018-02-12T07:04:31.441Z,0.80
2018-02-12T07:06:59.758Z,0.80
2018-02-12T07:09:28.060Z,0.80
2018-02-12T07:11:57.296Z,0.90
2018-02-12T07:14:25.592Z,0.90
2018-02-12T07:16:54.680Z,1.00
2018-02-12T07:19:23.745Z,1.00
2018-02-12T07:21:52.063Z,1.00
2018-02-12T07:24:21.132Z,0.90
2018-02-12T07:26:49.443Z,0.90
2018-02-12T07:29:18.508Z,1.00
2018-02-12T07:31:46.833Z,1.00
2018-02-12T07:34:15.136Z,1.10
2018-02-12T07:36:43.460Z,1.10
2018-02-12T07:39:11.756Z,1.10
2018-02-12T07:41:40.836Z,1.10
2018-02-12T07:44:09.905Z,1.00
2018-02-12T07:46:38.241Z,1.00
2018-02-12T07:49:06.554Z,1.00
2018-02-12T07:51:34.880Z,1.00
2018-02-12T07:54:03.189Z,1.00
2018-02-12T07:56:32.269Z,1.00
2018-02-12T07:59:00.563Z,0.90
2018-02-12T08:01:28.884Z,1.00
2018-02-12T08:03:57.188Z,1.10
2018-02-12T08:06:26.276Z,1.30
2018-02-12T08:08:55.397Z,1.60
2018-02-12T08:11:23.776Z,1.60
2018-02-12T08:13:52.820Z,2.50
2018-02-12T08:16:21.137Z,2.40
2018-02-12T08:18:49.436Z,2.50
2018-02-12T08:21:17.757Z,2.40
2018-02-12T08:23:46.055Z,2.40
2018-02-12T08:26:14.380Z,2.40
2018-02-12T08:28:42.684Z,2.40
2018-02-12T08:31:11.011Z,2.10
2018-02-12T08:33:39.314Z,2.00
2018-02-12T08:36:07.641Z,1.90
2018-02-12T08:38:35.948Z,1.90
2018-02-12T08:41:04.276Z,1.90
2018-02-12T08:43:32.618Z,1.90
2018-02-12T08:46:00.928Z,1.90
2018-02-12T08:48:29.265Z,1.90
2018-02-12T08:50:57.627Z,1.90
2018-02-12T08:53:26.744Z,1.90
2018-02-12T08:55:55.048Z,1.90
2018-02-12T08:58:23.372Z,2.00
2018-02-12T09:00:52.440Z,2.20
2018-02-12T09:03:20.768Z,2.20
2018-02-12T09:05:49.072Z,2.30
2018-02-12T09:08:17.417Z,2.30
2018-02-12T09:10:45.916Z,2.40
2018-02-12T09:13:14.248Z,2.50
2018-02-12T09:15:42.554Z,2.50
2018-02-12T09:18:11.636Z,2.40
2018-02-12T09:20:40.709Z,2.40
2018-02-12T09:23:09.034Z,2.30
2018-02-12T09:25:37.342Z,2.40
2018-02-12T09:28:06.433Z,2.60
2018-02-12T09:30:34.731Z,2.60
2018-02-12T09:33:03.062Z,3.00
2018-02-12T09:35:31.364Z,3.40
2018-02-12T09:37:59.690Z,3.30
2018-02-12T09:40:28.012Z,3.20
2018-02-12T09:42:56.650Z,3.20
2018-02-12T09:45:24.964Z,3.50
2018-02-12T09:47:53.264Z,3.50
2018-02-12T09:50:21.584Z,3.40
2018-02-12T09:52:49.891Z,3.40
2018-02-12T09:55:18.220Z,3.30
2018-02-12T09:57:46.537Z,3.30
2018-02-12T10:00:15.619Z,3.20
2018-02-12T10:02:43.925Z,3.20
2018-02-12T10:05:12.253Z,3.10
2018-02-12T10:07:40.569Z,3.20
2018-02-12T10:10:08.893Z,3.60
2018-02-12T10:12:37.199Z,3.90
2018-02-12T10:15:05.529Z,3.80
2018-02-12T10:17:33.836Z,3.70
2018-02-12T10:20:02.163Z,3.70
2018-02-12T10:22:31.238Z,3.30
2018-02-12T10:24:59.593Z,3.30
2018-02-12T10:27:28.801Z,3.20
2018-02-12T10:29:57.108Z,3.40
2018-02-12T10:32:26.197Z,3.30
2018-02-12T10:34:54.501Z,3.20
2018-02-12T10:37:22.820Z,3.20
2018-02-12T10:39:51.120Z,3.20
2018-02-12T10:42:19.437Z,3.20
2018-02-12T10:44:47.734Z,3.40
2018-02-12T10:47:16.052Z,3.60
2018-02-12T10:49:44.351Z,3.40
2018-02-12T10:52:12.745Z,3.40
2018-02-12T10:54:41.811Z,3.40
2018-02-12T10:57:10.124Z,3.40
2018-02-12T10:59:38.443Z,3.50
2018-02-12T11:02:06.765Z,3.40
2018-02-12T11:04:35.076Z,3.40
2018-02-12T11:07:03.392Z,3.40
2018-02-12T11:09:31.683Z,3.40
2018-02-12T11:12:00.013Z,3.30
2018-02-12T11:14:28.383Z,3.40
2018-02-12T11:16:56.708Z,3.50
2018-02-12T11:19:25.049Z,3.50
2018-02-12T11:21:53.349Z,3.60
2018-02-12T11:24:21.676Z,3.60
2018-02-12T11:26:50.753Z,3.60
2018-02-12T11:29:19.076Z,3.60
2018-02-12T11:31:47.379Z,3.90
2018-02-12T11:34:15.700Z,4.30
2018-02-12T11:36:44.769Z,4.60
2018-02-12T11:39:13.076Z,4.60
2018-02-12T11:41:42.148Z,4.30
2018-02-12T11:44:10.468Z,4.30
2018-02-12T11:46:38.772Z,4.30
2018-02-12T11:49:07.097Z,4.30
2018-02-12T11:51:35.410Z,4.10
2018-02-12T11:54:03.753Z,4.00
2018-02-12T11:56:32.825Z,4.10
2018-02-12T11:59:01.145Z,4.10
2018-02-12T12:01:32.233Z,4.20
2018-02-12T12:04:00.548Z,4.20
2018-02-12T12:06:29.619Z,2.70
2018-02-12T12:08:57.999Z,2.60
2018-02-12T12:11:26.300Z,2.30
2018-02-12T12:13:54.629Z,2.20
2018-02-12T12:16:22.928Z,2.00
2018-02-12T12:18:51.256Z,1.70
2018-02-12T12:21:20.329Z,1.90
2018-02-12T12:23:48.656Z,1.90
2018-02-12T12:26:16.969Z,2.10
2018-02-12T12:28:45.272Z,2.40
2018-02-12T12:31:17.420Z,2.40
2018-02-12T12:33:45.755Z,2.40
2018-02-12T12:36:14.072Z,2.60
2018-02-12T12:38:42.380Z,2.90
2018-02-12T12:41:11.495Z,3.10
2018-02-12T12:43:39.796Z,3.10
2018-02-12T12:46:08.167Z,2.90
2018-02-12T12:48:37.208Z,2.90
2018-02-12T12:51:05.529Z,2.90
2018-02-12T12:53:33.836Z,3.00
2018-02-12T12:56:02.156Z,3.20
2018-02-12T12:58:30.456Z,3.10
2018-02-12T13:00:58.776Z,3.30
2018-02-12T13:03:27.074Z,3.40
2018-02-12T13:05:55.397Z,3.50
2018-02-12T13:08:23.709Z,3.80
2018-02-12T13:10:52.012Z,3.70
2018-02-12T13:13:20.346Z,3.60
2018-02-12T13:15:49.416Z,3.60
2018-02-12T13:18:19.669Z,3.60
2018-02-12T13:20:47.974Z,3.60
2018-02-12T13:23:16.309Z,3.40
2018-02-12T13:25:44.634Z,3.40
2018-02-12T13:28:12.952Z,3.50
2018-02-12T13:30:41.315Z,3.50
2018-02-12T13:33:09.630Z,3.60
2018-02-12T13:35:37.942Z,3.60
2018-02-12T13:38:06.268Z,3.60
2018-02-12T13:40:34.584Z,3.60
2018-02-12T13:43:02.918Z,3.50
2018-02-12T13:45:31.997Z,3.30
2018-02-12T13:48:00.320Z,3.20
2018-02-12T13:50:28.620Z,3.40
2018-02-12T13:52:56.944Z,3.40
2018-02-12T13:55:26.021Z,3.50
2018-02-12T13:57:54.352Z,3.50
2018-02-12T14:00:22.660Z,3.30
2018-02-12T14:02:50.981Z,3.10
2018-02-12T14:05:20.048Z,2.00
2018-02-12T14:07:48.371Z,2.00
2018-02-12T14:10:16.670Z,2.00
2018-02-12T14:12:44.993Z,2.10
2018-02-12T14:15:15.217Z,2.40
2018-02-12T14:17:43.556Z,2.40
2018-02-12T14:20:11.860Z,2.60
2018-02-12T14:22:40.163Z,3.30
2018-02-12T14:25:09.253Z,3.40
2018-02-12T14:27:37.581Z,3.40
2018-02-12T14:30:05.903Z,3.50
2018-02-12T14:32:34.211Z,3.40
2018-02-12T14:35:02.563Z,3.40
2018-02-12T14:37:30.868Z,3.30
2018-02-12T14:39:59.189Z,3.20
2018-02-12T14:42:27.497Z,3.30
2018-02-12T14:44:55.863Z,3.30
2018-02-12T14:47:24.157Z,3.00
2018-02-12T14:49:52.477Z,3.00
2018-02-12T14:52:20.788Z,3.10
2018-02-12T14:54:49.116Z,3.00
2018-02-12T14:57:17.418Z,2.90
2018-02-12T14:59:45.744Z,2.90
2018-02-12T15:02:14.058Z,3.10
2018-02-12T15:04:42.378Z,3.10
2018-02-12T15:07:10.676Z,3.20
2018-02-12T15:09:42.016Z,3.30
2018-02-12T15:12:10.313Z,3.40
2018-02-12T15:14:39.405Z,3.30
2018-02-12T15:17:07.729Z,3.30
2018-02-12T15:19:36.020Z,3.20
2018-02-12T15:22:04.344Z,3.10
2018-02-12T15:24:33.416Z,2.80
2018-02-12T15:27:01.737Z,2.80
2018-02-12T15:29:30.057Z,2.90
2018-02-12T15:31:58.377Z,3.00
2018-02-12T15:34:27.453Z,3.30
2018-02-12T15:36:55.776Z,3.30
2018-02-12T15:39:24.078Z,3.40
2018-02-12T15:41:52.510Z,3.50
2018-02-12T15:44:21.584Z,3.40
2018-02-12T15:46:49.918Z,3.40
2018-02-12T15:49:18.215Z,3.30
2018-02-12T15:51:46.536Z,3.20
2018-02-12T15:54:15.605Z,3.00
2018-02-12T15:56:43.925Z,3.00
2018-02-12T15:59:12.992Z,2.90
2018-02-12T16:01:41.316Z,2.80
2018-02-12T16:04:09.615Z,2.80
2018-02-12T16:06:37.957Z,2.70
2018-02-12T16:09:07.029Z,2.50
2018-02-12T16:11:35.357Z,2.50
2018-02-12T16:14:03.689Z,2.40
2018-02-12T16:16:33.940Z,2.30
2018-02-12T16:19:02.252Z,2.30
2018-02-12T16:21:30.569Z,2.20
2018-02-12T16:23:58.864Z,2.20
2018-02-12T16:26:27.952Z,2.10
2018-02-12T16:28:58.288Z,2.10
2018-02-12T16:31:26.600Z,2.10
2018-02-12T16:33:54.921Z,2.10
2018-02-12T16:36:23.247Z,2.10
2018-02-12T16:38:51.572Z,2.30
2018-02-12T16:41:19.881Z,2.20
2018-02-12T16:43:50.125Z,2.20
2018-02-12T16:46:18.424Z,2.10
2018-02-12T16:48:46.776Z,2.00
2018-02-12T16:51:15.072Z,1.90
2018-02-12T16:53:43.423Z,1.90
2018-02-12T16:56:11.724Z,1.80
2018-02-12T16:58:40.048Z,1.70
2018-02-12T17:01:08.344Z,1.50
2018-02-12T17:03:37.448Z,1.60
2018-02-12T17:06:06.508Z,1.60
2018-02-12T17:08:34.841Z,1.60
2018-02-12T17:11:03.143Z,1.60
2018-02-12T17:13:31.459Z,1.60
2018-02-12T17:15:59.760Z,1.70
2018-02-12T17:18:28.081Z,1.70
2018-02-12T17:20:56.412Z,1.60
2018-02-12T17:23:25.520Z,1.30
2018-02-12T17:25:53.824Z,1.30
2018-02-12T17:28:22.147Z,1.40
2018-02-12T17:30:50.452Z,1.30
2018-02-12T17:33:22.390Z,1.30
2018-02-12T17:35:51.460Z,1.00
2018-02-12T17:38:19.766Z,1.00
2018-02-12T17:40:48.085Z,0.80
2018-02-12T17:43:16.394Z,0.80
2018-02-12T17:45:44.721Z,0.80
2018-02-12T17:48:13.034Z,0.90
2018-02-12T17:50:56.487Z,0.90
2018-02-12T17:53:24.784Z,0.80
2018-02-12T17:55:53.112Z,0.50
2018-02-12T17:58:21.407Z,0.60
2018-02-12T18:00:49.721Z,0.60
2018-02-12T18:03:18.783Z,0.60
2018-02-12T18:05:47.108Z,0.60
2018-02-12T18:08:16.165Z,0.40
2018-02-12T18:10:44.484Z,0.40
2018-02-12T18:13:13.548Z,0.50
2018-02-12T18:15:41.881Z,0.40
2018-02-12T18:18:10.180Z,0.40
2018-02-12T18:20:38.500Z,0.40
2018-02-12T18:23:07.566Z,0.30
2018-02-12T18:25:35.889Z,0.30
2018-02-12T18:28:04.972Z,0.20
2018-02-12T18:30:34.057Z,0.00
2018-02-12T18:33:02.361Z,0.00
2018-02-12T18:35:30.720Z,0.00
2018-02-12T18:37:59.020Z,0.20
2018-02-12T18:40:28.383Z,0.20
2018-02-12T18:42:56.700Z,0.00
2018-02-12T18:45:25.772Z,0.10
2018-02-12T18:48:01.905Z,0.10
2018-02-12T18:50:30.209Z,0.00
2018-02-12T18:52:58.536Z,0.00
2018-02-12T18:55:26.835Z,0.00
2018-02-12T18:57:55.159Z,-0.10
2018-02-12T19:00:24.225Z,0.00
2018-02-12T19:02:52.545Z,0.00
2018-02-12T19:05:20.841Z,0.00
2018-02-12T19:07:49.164Z,0.00
2018-02-12T19:10:17.464Z,0.00
2018-02-12T19:12:45.793Z,0.00
2018-02-12T19:15:14.132Z,-0.10
2018-02-12T19:17:43.228Z,-0.10
2018-02-12T19:20:11.537Z,-0.10
2018-02-12T19:22:39.864Z,-0.10
2018-02-12T19:25:08.165Z,0.00
2018-02-12T19:27:36.483Z,0.00
2018-02-12T19:30:04.812Z,-0.20
2018-02-12T19:32:33.884Z,-0.40
2018-02-12T19:35:02.213Z,-0.40
2018-02-12T19:37:30.520Z,-0.30
2018-02-12T19:39:58.858Z,-0.30
2018-02-12T19:42:27.160Z,-0.40
2018-02-12T19:44:55.496Z,-0.50
2018-02-12T19:47:24.710Z,-0.60
2018-02-12T19:49:53.077Z,-0.60
2018-02-12T19:52:21.403Z,-0.50
2018-02-12T19:54:49.735Z,-0.40
2018-02-12T19:57:18.816Z,-0.50
2018-02-12T19:59:47.145Z,-0.60
2018-02-12T20:02:15.464Z,-0.60
2018-02-12T20:04:43.871Z,-0.60
2018-02-12T20:07:12.137Z,-0.50
2018-02-12T20:09:41.234Z,-0.60
2018-02-12T20:12:10.309Z,-0.60
2018-02-12T20:14:38.649Z,-0.60
2018-02-12T20:17:06.956Z,-0.70
2018-02-12T20:19:35.289Z,-0.60
2018-02-12T20:22:03.612Z,-0.80
2018-02-12T20:24:31.944Z,-0.80
2018-02-12T20:27:00.243Z,-0.90
2018-02-12T20:29:28.650Z,-0.90
2018-02-12T20:31:56.961Z,-0.90
2018-02-12T20:34:26.037Z,-0.90
2018-02-12T20:36:54.380Z,-0.90
2018-02-12T20:39:23.464Z,-1.00
2018-02-12T20:41:51.793Z,-1.00
2018-02-12T20:44:20.104Z,-1.10
2018-02-12T20:46:48.480Z,-1.10
2018-02-12T20:49:17.543Z,-1.20
2018-02-12T20:51:45.886Z,-1.30
2018-02-12T20:54:14.202Z,-1.30
2018-02-12T20:56:42.547Z,-1.30
2018-02-12T20:59:10.856Z,-1.50
2018-02-12T21:01:39.206Z,-1.60
2018-02-12T21:04:07.511Z,-1.70
2018-02-12T21:06:35.847Z,-1.90
2018-02-12T21:09:04.168Z,-1.90
2018-02-12T21:11:32.500Z,-1.90
2018-02-12T21:14:00.861Z,-1.80
2018-02-12T21:16:29.196Z,-1.80
2018-02-12T21:18:57.504Z,-1.80
2018-02-12T21:21:26.607Z,-2.10
2018-02-12T21:23:55.675Z,-2.00
2018-02-12T21:26:24.004Z,-2.10
2018-02-12T21:28:52.316Z,-2.10
2018-02-12T21:31:20.644Z,-2.10
2018-02-12T21:33:48.960Z,-2.20
2018-02-12T21:36:17.328Z,-2.20
2018-02-12T21:38:45.645Z,-2.20
2018-02-12T21:41:13.944Z,-2.20
2018-02-12T21:43:43.037Z,-2.10
2018-02-12T21:46:12.112Z,-2.20
2018-02-12T21:48:40.447Z,-2.30
2018-02-12T21:51:08.752Z,-2.20
2018-02-12T21:53:37.072Z,-2.10
2018-02-12T21:56:06.140Z,-2.10
2018-02-12T21:58:34.469Z,-2.10
2018-02-12T22:01:02.780Z,-2.20
2018-02-12T22:03:31.104Z,-2.20
2018-02-12T22:06:00.182Z,-2.30
2018-02-12T22:08:28.540Z,-2.30
2018-02-12T22:10:56.849Z,-2.30
2018-02-12T22:13:25.180Z,-2.30
2018-02-12T22:15:53.483Z,-2.40
2018-02-12T22:18:21.816Z,-2.50
2018-02-12T22:20:50.128Z,-2.50
2018-02-12T22:23:18.460Z,-2.60
2018-02-12T22:25:46.768Z,-2.50
2018-02-12T22:28:15.110Z,-2.60
2018-02-12T22:30:44.192Z,-2.70
2018-02-12T22:33:12.516Z,-2.70
2018-02-12T22:35:40.834Z,-2.70
2018-02-12T22:38:09.168Z,-2.70
2018-02-12T22:40:38.250Z,-2.60
2018-02-12T22:43:06.588Z,-2.70
2018-02-12T22:45:34.898Z,-2.60
2018-02-12T22:48:04.000Z,-2.80
2018-02-12T22:50:32.312Z,-2.80
2018-02-12T22:53:00.677Z,-2.80
2018-02-12T22:55:29.009Z,-2.80
2018-02-12T22:57:57.317Z,-2.90
2018-02-12T23:00:25.650Z,-2.90
2018-02-12T23:02:53.964Z,-3.00
2018-02-12T23:05:23.249Z,-3.00
2018-02-12T23:07:51.595Z,-3.10
2018-02-12T23:10:20.688Z,-3.00
2018-02-12T23:12:49.002Z,-3.10
2018-02-12T23:15:23.844Z,-3.20
2018-02-12T23:17:52.919Z,-3.30
2018-02-12T23:20:21.257Z,-3.30
2018-02-12T23:22:49.564Z,-3.20
2018-02-12T23:25:17.940Z,-3.30
2018-02-12T23:27:46.222Z,-3.20
2018-02-12T23:30:16.191Z,-3.20
2018-02-12T23:32:44.495Z,-3.30
2018-02-12T23:35:12.824Z,-3.30
2018-02-12T23:37:41.899Z,-3.20
2018-02-12T23:40:10.237Z,-3.20
2018-02-12T23:42:38.552Z,-3.20
2018-02-12T23:45:06.907Z,-3.20
2018-02-12T23:47:35.220Z,-3.20
2018-02-12T23:50:03.676Z,-3.10
2018-02-12T23:52:32.003Z,-3.20
2018-02-12T23:55:01.085Z,-3.20
2018-02-12T23:57:30.180Z,-3.30
2018-02-12T23:59:59.250Z,-3.40
